Pontotoc, Oklahoma
Current Conditions -  °F | °C
As of 10:35 AM on Thursday 29 Jan 2015 (Local Time) from KADH Reporting Station
Clear Clear  
Wind Chill: 11°   Ceiling: Unl
Heat Index: 11°   Visibility: 10mi
Dew Point:   Wind: 17mph
Humidity: 58%   Direction: 360°N
Pressure: 30.33"   Gusts: 22mph
Location:  34.7965°N, 96.7902°W
Report Text: KADH 291635Z AUTO 36015G19KT 10SM CLR 11/03 A3033 RMK AO2
Loading
Personal Weather Stations






























Interactive Weather Map New forecast layout! Learn more

10-Day Weather Forecast

Advertisements
Track Severe Weather on mobile